createdAt,value
2018-04-13T20:39:55.221Z,2.80
2018-04-13T20:42:23.340Z,1.90
2018-04-13T20:44:51.447Z,1.70
2018-04-13T20:47:19.847Z,1.48
2018-04-13T20:49:48.184Z,1.40
2018-04-13T20:52:16.319Z,1.30
2018-04-13T20:54:44.468Z,1.20
2018-04-13T20:57:12.591Z,1.20
2018-04-13T20:59:40.785Z,1.57
2018-04-13T21:02:08.923Z,1.80
2018-04-13T21:04:37.095Z,1.50
2018-04-13T21:07:05.281Z,1.50
2018-04-13T21:09:33.394Z,1.50
2018-04-13T21:12:01.533Z,1.17
2018-04-13T21:14:29.670Z,1.20
2018-04-13T21:16:57.813Z,1.77
2018-04-13T21:19:25.937Z,1.25
2018-04-13T21:21:54.065Z,1.10
2018-04-13T21:24:22.206Z,1.50
2018-04-13T21:26:50.334Z,1.60
2018-04-13T21:29:18.429Z,1.50
2018-04-13T21:31:46.580Z,1.73
2018-04-13T21:34:14.751Z,1.67
2018-04-13T21:36:42.847Z,2.10
2018-04-13T21:39:11.016Z,1.80
2018-04-13T21:41:39.122Z,1.40
2018-04-13T21:44:07.267Z,1.43
2018-04-13T21:46:35.404Z,1.87
2018-04-13T21:49:03.521Z,1.80
2018-04-13T21:51:31.650Z,2.70
2018-04-13T21:53:59.774Z,1.83
2018-04-13T21:56:27.994Z,2.80
2018-04-13T21:58:56.638Z,2.90
2018-04-13T22:01:24.774Z,2.03
2018-04-13T22:03:52.875Z,1.60
2018-04-13T22:06:21.076Z,1.90
2018-04-13T22:08:49.311Z,1.90
2018-04-13T22:11:17.413Z,1.87
2018-04-13T22:13:46.454Z,2.10
2018-04-13T22:16:14.575Z,1.70
2018-04-13T22:18:42.707Z,1.80
2018-04-13T22:21:10.827Z,2.20
2018-04-13T22:23:38.955Z,2.63
2018-04-13T22:26:07.105Z,2.10
2018-04-13T22:28:35.245Z,2.47
2018-04-13T22:31:03.588Z,1.90
2018-04-13T22:33:31.700Z,2.30
2018-04-13T22:35:59.824Z,2.03
2018-04-13T22:38:27.979Z,2.00
2018-04-13T22:40:56.131Z,2.90
2018-04-13T22:43:24.244Z,2.20
2018-04-13T22:45:52.365Z,2.97
2018-04-13T22:48:20.626Z,3.00
2018-04-13T22:50:48.737Z,2.50
2018-04-13T22:53:16.960Z,2.92
2018-04-13T22:55:45.061Z,2.70
2018-04-13T22:58:13.170Z,2.80
2018-04-13T23:00:41.343Z,2.57
2018-04-13T23:03:09.465Z,2.80
2018-04-13T23:05:37.551Z,3.03
2018-04-13T23:08:05.697Z,2.20
2018-04-13T23:10:33.806Z,2.33
2018-04-13T23:13:01.908Z,2.27
2018-04-13T23:15:30.043Z,2.40
2018-04-13T23:17:58.159Z,2.00
2018-04-13T23:20:26.288Z,2.00
2018-04-13T23:22:54.434Z,2.07
2018-04-13T23:25:22.553Z,2.60
2018-04-13T23:27:50.655Z,2.50
2018-04-13T23:30:18.807Z,2.13
2018-04-13T23:32:46.913Z,2.03
2018-04-13T23:35:15.007Z,1.87
2018-04-13T23:37:43.145Z,2.10
2018-04-13T23:40:11.268Z,2.13
2018-04-13T23:42:39.458Z,1.90
2018-04-13T23:45:07.681Z,2.10
2018-04-13T23:47:35.775Z,2.37
2018-04-13T23:50:03.877Z,2.33
2018-04-13T23:52:32.042Z,1.90
2018-04-13T23:55:00.155Z,2.07
2018-04-13T23:57:28.270Z,2.23
2018-04-13T23:59:56.417Z,2.03
